Time;durP1;ratioP1;P1;durP2;ratioP2;P2;SDS_P1;SDS_P2;PMS_P1;PMS_P2;Temp;Humidity;BMP_temperature;BMP_pressure;BME280_temperature;BME280_humidity;BME280_pressure;Samples;Min_cycle;Max_cycle;Signal;HPM_P1;HPM_P2
2021/04/10 00:01:19;;;;;;;28.38;14.45;;;;;;;4.09;47.35;95547.75;2975653;39;20051;-71
2021/04/10 00:03:20;;;;;;;29.20;14.40;;;;;;;4.14;47.06;95542.25;2983221;39;20462;-72
2021/04/10 00:05:23;;;;;;;26.75;13.63;;;;;;;4.16;47.26;95543.00;2983707;39;20063;-71
2021/04/10 00:07:24;;;;;;;22.85;12.30;;;;;;;4.17;47.31;95540.28;2980727;39;20059;-73
2021/04/10 00:09:26;;;;;;;22.63;10.55;;;;;;;4.16;47.21;95543.81;2974323;39;20040;-73
2021/04/10 00:11:27;;;;;;;22.95;10.10;;;;;;;4.17;46.69;95542.88;2992709;39;20078;-73
2021/04/10 00:13:28;;;;;;;24.45;10.25;;;;;;;4.18;46.70;95541.13;2983427;39;20087;-70
2021/04/10 00:15:30;;;;;;;21.63;10.13;;;;;;;4.14;46.46;95530.13;2987222;39;20036;-71
2021/04/10 00:17:31;;;;;;;18.42;9.70;;;;;;;4.16;46.79;95537.81;2992844;39;20047;-70
2021/04/10 00:19:33;;;;;;;18.75;9.35;;;;;;;4.18;46.44;95529.00;2991825;39;20086;-71
2021/04/10 00:21:34;;;;;;;19.70;9.13;;;;;;;4.16;45.94;95527.44;2974914;39;20052;-71
2021/04/10 00:23:42;;;;;;;20.98;9.82;;;;;;;4.13;46.30;95533.66;2986314;39;20047;-84
2021/04/10 00:25:44;;;;;;;15.48;9.00;;;;;;;4.13;46.86;95527.63;2995808;39;20063;-84
2021/04/10 00:27:46;;;;;;;26.67;11.15;;;;;;;4.14;46.95;95529.28;2989964;39;20059;-84
2021/04/10 00:29:47;;;;;;;20.17;9.07;;;;;;;4.14;46.93;95521.50;2994495;39;20087;-82
2021/04/10 00:31:48;;;;;;;18.13;9.68;;;;;;;4.14;46.55;95524.09;2991395;39;20031;-85
2021/04/10 00:33:49;;;;;;;17.08;9.55;;;;;;;4.14;46.62;95519.75;2990645;39;20348;-85
2021/04/10 00:35:51;;;;;;;16.60;8.73;;;;;;;4.16;46.53;95525.66;2986637;39;20043;-83
2021/04/10 00:37:52;;;;;;;15.05;8.73;;;;;;;4.20;46.50;95524.53;2986666;39;20091;-85
2021/04/10 00:39:53;;;;;;;17.10;8.60;;;;;;;4.19;46.31;95509.88;2988984;39;20048;-86
2021/04/10 00:41:54;;;;;;;16.88;7.88;;;;;;;4.24;46.20;95512.22;2996332;39;20043;-84
2021/04/10 00:43:55;;;;;;;14.45;8.27;;;;;;;4.24;47.20;95520.00;2995551;39;20362;-86
2021/04/10 00:45:57;;;;;;;18.02;9.00;;;;;;;3.75;47.45;95517.97;2987115;39;20051;-85
2021/04/10 00:47:58;;;;;;;21.02;8.82;;;;;;;3.59;48.27;95520.66;2986915;39;20072;-82
2021/04/10 00:49:59;;;;;;;17.50;9.25;;;;;;;3.55;48.49;95516.59;2996733;39;20039;-83
2021/04/10 00:52:01;;;;;;;17.50;8.55;;;;;;;3.34;48.89;95524.81;3004670;39;20090;-83
2021/04/10 00:54:03;;;;;;;13.90;7.70;;;;;;;2.75;50.12;95522.31;2992102;39;20075;-82
2021/04/10 00:56:05;;;;;;;15.55;8.35;;;;;;;2.32;51.16;95518.81;2996846;39;20406;-83
2021/04/10 00:58:07;;;;;;;13.13;7.47;;;;;;;1.80;52.78;95514.88;2980732;39;20094;-85
2021/04/10 01:00:08;;;;;;;17.05;9.32;;;;;;;1.65;54.18;95513.97;2988188;39;20064;-86
2021/04/10 01:02:10;;;;;;;15.13;7.60;;;;;;;1.94;53.51;95509.78;2985125;39;20075;-72
2021/04/10 01:04:11;;;;;;;14.55;7.53;;;;;;;2.20;52.14;95505.69;2992446;39;20117;-72
2021/04/10 01:06:12;;;;;;;13.65;7.90;;;;;;;2.44;51.91;95511.19;2998209;39;20055;-71
2021/04/10 01:08:13;;;;;;;14.95;8.02;;;;;;;2.55;51.28;95514.91;2978017;39;21305;-71
2021/04/10 01:10:15;;;;;;;16.38;7.78;;;;;;;2.70;51.00;95513.16;2985399;39;20055;-71
2021/04/10 01:12:30;;;;;;;17.50;8.50;;;;;;;2.85;50.33;95514.84;2982983;39;20067;-70
2021/04/10 01:14:52;;;;;;;14.55;7.80;;;;;;;3.02;49.85;95513.81;2987768;39;20082;-71
2021/04/10 01:17:10;;;;;;;13.45;7.63;;;;;;;3.12;49.96;95512.34;2994717;39;20103;-72
2021/04/10 01:20:02;;;;;;;14.48;8.25;;;;;;;3.23;49.21;95517.69;2978244;39;20046;-70
2021/04/10 01:22:03;;;;;;;15.25;7.00;;;;;;;3.33;48.67;95522.28;2992872;39;20408;-72
2021/04/10 01:24:34;;;;;;;15.73;7.32;;;;;;;3.39;49.28;95516.75;2991771;39;20053;-71
2021/04/10 01:26:58;;;;;;;14.80;7.30;;;;;;;3.39;48.94;95525.34;2975710;39;20058;-69
2021/04/10 01:29:25;;;;;;;13.35;7.75;;;;;;;3.39;49.08;95524.50;2967243;39;20047;-70
2021/04/10 01:31:47;;;;;;;17.38;8.25;;;;;;;3.34;48.68;95526.56;2980085;39;20051;-70
2021/04/10 01:33:54;;;;;;;19.02;8.43;;;;;;;3.34;48.94;95521.38;2978186;39;20150;-72
2021/04/10 01:35:58;;;;;;;15.13;8.45;;;;;;;3.31;49.09;95514.63;2992640;39;20067;-73
2021/04/10 01:38:00;;;;;;;;;;;;;;;3.38;48.86;95520.28;2977181;39;20450;-83
2021/04/10 01:40:02;;;;;;;14.07;7.72;;;;;;;3.41;48.97;95520.06;2977671;40;19940;-84
2021/04/10 01:42:05;;;;;;;12.48;7.78;;;;;;;3.42;49.53;95524.31;2986368;39;20040;-83
2021/04/10 01:44:07;;;;;;;14.15;7.55;;;;;;;3.49;49.46;95518.66;2998035;39;20075;-84
2021/04/10 01:46:09;;;;;;;18.17;9.52;;;;;;;3.46;49.26;95518.00;2986583;39;20114;-84
2021/04/10 01:48:12;;;;;;;21.65;12.05;;;;;;;3.37;49.62;95518.59;2986030;39;20055;-83
2021/04/10 01:50:13;;;;;;;21.25;10.98;;;;;;;3.21;50.39;95519.53;2976524;39;20148;-70
2021/04/10 01:52:15;;;;;;;22.17;11.23;;;;;;;3.18;49.99;95513.72;2986393;39;20079;-70
2021/04/10 01:54:17;;;;;;;17.70;9.98;;;;;;;3.18;50.09;95511.94;2982651;39;20059;-71
2021/04/10 01:56:19;;;;;;;17.00;8.23;;;;;;;3.20;51.20;95509.28;2982946;39;20103;-71
2021/04/10 01:58:20;;;;;;;15.13;7.97;;;;;;;3.23;50.64;95496.97;2984960;39;20112;-70
2021/04/10 02:00:23;;;;;;;15.55;7.82;;;;;;;3.30;50.77;95501.78;2972581;39;20056;-72
2021/04/10 02:02:25;;;;;;;15.00;7.50;;;;;;;3.34;50.66;95505.84;2972668;39;20071;-70
2021/04/10 02:04:26;;;;;;;14.10;7.88;;;;;;;3.37;50.59;95511.66;2983077;39;20055;-71
2021/04/10 02:06:28;;;;;;;18.95;7.53;;;;;;;3.42;50.65;95511.34;2978944;39;20060;-70
2021/04/10 02:08:30;;;;;;;16.38;8.43;;;;;;;3.39;50.73;95506.38;2977253;39;20070;-82
2021/04/10 02:10:31;;;;;;;19.40;9.57;;;;;;;3.39;50.47;95501.19;2995761;39;20323;-85
2021/04/10 02:12:33;;;;;;;16.90;9.18;;;;;;;3.34;50.94;95506.66;2995238;39;20091;-83
2021/04/10 02:14:35;;;;;;;20.30;11.18;;;;;;;3.34;50.83;95500.66;2983079;39;20075;-84
2021/04/10 02:16:36;;;;;;;21.88;10.68;;;;;;;3.29;50.47;95506.09;2979788;39;20091;-84
2021/04/10 02:18:38;;;;;;;22.08;11.07;;;;;;;2.98;51.63;95504.56;2986501;39;20055;-84
2021/04/10 02:20:40;;;;;;;22.65;10.45;;;;;;;2.65;52.27;95505.69;2987807;39;20044;-85
2021/04/10 02:22:43;;;;;;;24.63;11.35;;;;;;;2.64;52.39;95516.94;2975239;39;20091;-84
2021/04/10 02:24:44;;;;;;;20.77;10.55;;;;;;;2.67;52.87;95506.44;2992028;39;20051;-84
2021/04/10 02:26:46;;;;;;;19.15;9.82;;;;;;;2.79;52.68;95510.03;2995363;39;20126;-83
2021/04/10 02:28:47;;;;;;;21.55;12.10;;;;;;;2.69;52.30;95509.75;2984699;39;20048;-83
2021/04/10 02:30:48;;;;;;;23.83;11.50;;;;;;;2.65;52.45;95505.69;2997195;39;20391;-84
2021/04/10 02:32:56;;;;;;;23.85;10.55;;;;;;;2.71;53.02;95507.91;3000726;39;20130;-84
2021/04/10 02:35:09;;;;;;;24.85;11.65;;;;;;;2.77;52.72;95504.94;2970371;39;20202;-84
2021/04/10 02:37:10;;;;;;;22.75;11.27;;;;;;;2.82;52.43;95502.91;2983177;39;20114;-82
2021/04/10 02:39:12;;;;;;;27.73;11.30;;;;;;;2.92;52.03;95502.34;2989622;39;20399;-82
2021/04/10 02:41:16;;;;;;;24.02;11.18;;;;;;;2.98;52.44;95495.06;2986261;39;20063;-83
2021/04/10 02:43:25;;;;;;;22.65;10.65;;;;;;;3.06;51.56;95500.59;2985725;39;20052;-84
2021/04/10 02:45:27;;;;;;;21.35;10.52;;;;;;;3.10;51.55;95506.44;2977223;39;20048;-82
2021/04/10 02:47:29;;;;;;;22.15;11.18;;;;;;;3.12;51.86;95499.41;2986098;39;20522;-84
2021/04/10 02:49:31;;;;;;;23.48;10.80;;;;;;;3.16;51.47;95508.66;2988446;39;20077;-83
2021/04/10 02:51:37;;;;;;;21.52;10.70;;;;;;;3.18;51.44;95503.34;2977240;40;20613;-83
2021/04/10 02:53:39;;;;;;;22.98;10.57;;;;;;;3.20;51.47;95502.31;2985529;39;20055;-83
2021/04/10 02:55:44;;;;;;;26.13;11.50;;;;;;;3.21;51.80;95503.19;2977588;40;20084;-84
2021/04/10 02:57:46;;;;;;;19.13;10.38;;;;;;;3.18;52.20;95504.19;2978887;40;20048;-83
2021/04/10 02:59:49;;;;;;;26.85;11.68;;;;;;;3.13;52.24;95506.22;2994765;39;20061;-83
2021/04/10 03:01:51;;;;;;;22.65;10.50;;;;;;;3.11;52.46;95508.06;2985814;39;20048;-83
2021/04/10 03:03:52;;;;;;;22.73;10.68;;;;;;;3.06;52.08;95494.59;2985914;39;20055;-85
2021/04/10 03:05:54;;;;;;;26.48;11.27;;;;;;;3.05;51.96;95508.44;2994874;39;20078;-85
2021/04/10 03:07:56;;;;;;;18.48;9.65;;;;;;;2.99;51.69;95507.09;2984340;39;20173;-82
2021/04/10 03:09:57;;;;;;;20.58;10.13;;;;;;;2.95;51.46;95497.84;2984950;39;20051;-83
2021/04/10 03:12:00;;;;;;;14.98;7.55;;;;;;;2.58;51.17;95507.81;2985404;39;20056;-84
2021/04/10 03:14:04;;;;;;;15.32;7.72;;;;;;;2.07;52.91;95506.50;2982833;39;20040;-82
2021/04/10 03:16:05;;;;;;;16.90;7.82;;;;;;;1.76;53.64;95515.94;2980961;39;20083;-84
2021/04/10 03:18:10;;;;;;;13.38;6.50;;;;;;;1.66;54.10;95512.22;2994579;39;20087;-84
2021/04/10 03:20:13;;;;;;;13.25;7.28;;;;;;;1.83;53.76;95515.53;2985313;39;20136;-83
2021/04/10 03:22:15;;;;;;;15.97;7.30;;;;;;;2.04;52.94;95513.50;2986638;39;20788;-84
2021/04/10 03:24:17;;;;;;;12.13;6.35;;;;;;;1.91;53.17;95520.25;2991487;39;20288;-84
2021/04/10 03:26:19;;;;;;;12.68;6.25;;;;;;;1.85;53.67;95520.63;2980942;39;20062;-83
2021/04/10 03:28:20;;;;;;;12.95;6.63;;;;;;;2.00;53.39;95524.94;2993675;39;20059;-84
2021/04/10 03:30:22;;;;;;;12.10;6.50;;;;;;;2.20;52.68;95517.78;2976727;39;20107;-84
2021/04/10 03:32:25;;;;;;;12.32;6.90;;;;;;;2.38;52.37;95524.47;2993213;39;20087;-82
2021/04/10 03:34:27;;;;;;;17.10;7.05;;;;;;;2.33;52.21;95521.31;2979860;39;20055;-82
2021/04/10 03:36:29;;;;;;;12.95;7.20;;;;;;;2.25;52.95;95520.94;2985831;39;20406;-84
2021/04/10 03:38:31;;;;;;;14.23;7.07;;;;;;;2.33;53.03;95517.91;2985444;39;20059;-84
2021/04/10 03:40:32;;;;;;;14.57;6.88;;;;;;;2.41;53.53;95524.31;2976894;39;20055;-83
2021/04/10 03:42:42;;;;;;;19.08;7.15;;;;;;;2.42;53.01;95525.97;2986775;39;20321;-84
2021/04/10 03:44:43;;;;;;;23.17;8.95;;;;;;;2.44;52.73;95526.69;2977542;39;20071;-84
2021/04/10 03:47:02;;;;;;;19.67;9.43;;;;;;;2.58;52.42;95527.66;2986293;39;20047;-84
2021/04/10 03:49:04;;;;;;;93.47;41.38;;;;;;;2.71;53.10;95531.19;2985332;39;20054;-85
2021/04/10 03:51:05;;;;;;;53.95;24.55;;;;;;;2.70;52.61;95529.50;2987488;39;20056;-83
2021/04/10 03:53:07;;;;;;;20.80;7.85;;;;;;;2.51;51.92;95526.34;2997649;39;20077;-85
2021/04/10 03:55:09;;;;;;;15.77;7.13;;;;;;;2.31;52.03;95538.69;2991901;39;20051;-82
2021/04/10 03:57:11;;;;;;;14.27;8.30;;;;;;;2.11;52.67;95526.91;2992892;39;20053;-84
2021/04/10 03:59:12;;;;;;;19.77;8.10;;;;;;;2.00;53.83;95529.25;2996312;39;20053;-84
2021/04/10 04:01:33;;;;;;;14.57;7.57;;;;;;;2.04;53.95;95529.00;2982338;39;20121;-82
2021/04/10 04:03:35;;;;;;;17.88;7.97;;;;;;;2.20;53.97;95534.13;2988701;39;20040;-70
2021/04/10 04:05:36;;;;;;;15.68;7.38;;;;;;;2.26;53.67;95535.53;2985721;39;20306;-72
2021/04/10 04:07:37;;;;;;;19.55;8.75;;;;;;;2.39;53.18;95530.50;2986233;39;20067;-70
2021/04/10 04:09:39;;;;;;;20.30;9.32;;;;;;;2.55;52.68;95535.59;2977987;39;20080;-71
2021/04/10 04:11:40;;;;;;;17.85;8.20;;;;;;;2.65;52.21;95534.16;2988185;39;20078;-71
2021/04/10 04:13:42;;;;;;;14.75;7.72;;;;;;;2.74;52.27;95530.19;2983587;39;20091;-71
2021/04/10 04:15:45;;;;;;;19.42;9.00;;;;;;;2.82;51.89;95540.91;2980158;39;21965;-71
2021/04/10 04:17:46;;;;;;;18.52;7.88;;;;;;;2.85;51.49;95538.94;2967897;39;20097;-72
2021/04/10 04:19:48;;;;;;;20.60;9.18;;;;;;;2.89;51.93;95537.03;2989489;39;20142;-72
2021/04/10 04:21:49;;;;;;;25.80;12.05;;;;;;;2.96;52.84;95530.53;2976301;39;20347;-73
2021/04/10 04:23:50;;;;;;;38.40;18.33;;;;;;;3.10;51.82;95536.63;2993183;39;20043;-70
2021/04/10 04:25:52;;;;;;;22.02;11.20;;;;;;;3.13;52.20;95534.72;2993002;39;20054;-86
2021/04/10 04:27:53;;;;;;;15.43;8.80;;;;;;;3.18;51.85;95531.84;2978751;39;20128;-86
2021/04/10 04:29:55;;;;;;;16.08;9.40;;;;;;;3.22;51.97;95525.53;2987203;39;20349;-86
2021/04/10 04:31:56;;;;;;;25.02;8.68;;;;;;;3.20;52.11;95533.41;2996427;39;20028;-84
2021/04/10 04:33:57;;;;;;;23.98;8.65;;;;;;;3.16;52.97;95536.28;2978434;40;20056;-87
2021/04/10 04:35:59;;;;;;;21.67;9.40;;;;;;;3.19;53.02;95536.94;2996360;39;20055;-86
2021/04/10 04:38:00;;;;;;;14.07;8.98;;;;;;;3.21;52.87;95542.84;2986710;39;20415;-85
2021/04/10 04:40:02;;;;;;;20.15;8.88;;;;;;;3.31;53.14;95534.50;2986410;39;20043;-86
2021/04/10 04:42:03;;;;;;;20.08;9.27;;;;;;;3.31;53.12;95537.09;2978188;40;20105;-84
2021/04/10 04:44:05;;;;;;;22.05;9.65;;;;;;;3.38;52.88;95536.63;2980227;39;20372;-84
2021/04/10 04:46:06;;;;;;;17.00;9.13;;;;;;;3.42;52.82;95543.28;2992589;39;20032;-86
2021/04/10 04:48:07;;;;;;;26.08;10.45;;;;;;;3.48;52.53;95536.88;2978362;40;20060;-84
2021/04/10 04:50:09;;;;;;;21.20;11.23;;;;;;;3.54;52.11;95533.91;2977939;39;20058;-85
2021/04/10 04:52:11;;;;;;;23.25;10.32;;;;;;;3.57;52.31;95528.56;2986361;39;20084;-83
2021/04/10 04:54:12;;;;;;;56.95;26.58;;;;;;;3.67;53.07;95534.81;2988836;39;20054;-85
2021/04/10 04:56:13;;;;;;;36.80;17.42;;;;;;;3.76;52.06;95523.03;2995739;39;20042;-84
2021/04/10 04:58:15;;;;;;;24.52;11.30;;;;;;;3.88;51.52;95534.38;2986680;39;20094;-84
2021/04/10 05:00:16;;;;;;;20.92;9.75;;;;;;;3.94;51.37;95531.41;2986608;39;20477;-85
2021/04/10 05:02:18;;;;;;;16.33;9.63;;;;;;;3.92;51.41;95533.25;2987336;39;20424;-85
2021/04/10 05:04:19;;;;;;;25.15;11.13;;;;;;;3.98;50.80;95532.88;2996734;39;20094;-85
2021/04/10 05:06:20;;;;;;;20.20;10.55;;;;;;;4.07;50.25;95540.06;2992821;39;20035;-84
2021/04/10 05:08:22;;;;;;;18.85;10.30;;;;;;;4.12;50.26;95537.16;2998145;39;20276;-86
2021/04/10 05:10:23;;;;;;;23.10;11.55;;;;;;;4.08;50.27;95546.06;3001270;39;20058;-84
2021/04/10 05:12:24;;;;;;;26.50;11.52;;;;;;;4.10;49.62;95544.22;2980560;39;20076;-85
2021/04/10 05:14:26;;;;;;;18.63;10.38;;;;;;;4.16;49.95;95541.22;2985437;39;20091;-83
2021/04/10 05:16:27;;;;;;;25.40;11.52;;;;;;;4.25;50.09;95542.38;2992112;39;20042;-85
2021/04/10 05:18:28;;;;;;;25.13;11.43;;;;;;;4.31;49.55;95544.59;2996576;39;20382;-85
2021/04/10 05:20:29;;;;;;;20.77;11.05;;;;;;;4.39;49.24;95547.50;2986676;39;20147;-84
2021/04/10 05:22:31;;;;;;;22.08;11.13;;;;;;;4.45;49.40;95541.94;2979072;39;20063;-85
2021/04/10 05:24:33;;;;;;;20.90;11.45;;;;;;;4.44;49.05;95545.44;2979966;40;20068;-85
2021/04/10 05:26:34;;;;;;;22.25;11.48;;;;;;;4.41;48.90;95550.84;2995737;39;20107;-83
2021/04/10 05:28:35;;;;;;;25.23;11.80;;;;;;;4.48;49.55;95543.47;2990703;39;20055;-71
2021/04/10 05:30:36;;;;;;;22.55;9.57;;;;;;;4.55;48.99;95554.28;2974880;39;20063;-71
2021/04/10 05:32:38;;;;;;;48.95;14.25;;;;;;;4.62;48.41;95547.75;2983662;39;20490;-71
2021/04/10 05:34:40;;;;;;;27.17;11.25;;;;;;;4.68;48.21;95550.75;2990606;39;20087;-71
2021/04/10 05:36:41;;;;;;;20.17;10.63;;;;;;;4.71;48.52;95545.38;2983155;39;20460;-72
2021/04/10 05:38:42;;;;;;;22.55;10.65;;;;;;;4.79;47.83;95544.84;2988698;39;20336;-69
2021/04/10 05:40:47;;;;;;;23.80;11.95;;;;;;;4.85;48.61;95549.63;2993846;39;20074;-71
2021/04/10 05:42:48;;;;;;;23.52;11.40;;;;;;;4.79;47.61;95557.00;2992562;39;20054;-71
2021/04/10 05:44:49;;;;;;;19.15;10.30;;;;;;;4.85;48.60;95549.63;2996221;39;20075;-85
2021/04/10 05:46:51;;;;;;;18.45;11.65;;;;;;;4.96;48.91;95553.28;2997081;39;20063;-86
2021/04/10 05:48:54;;;;;;;22.95;11.35;;;;;;;5.08;47.96;95555.06;2987664;39;20035;-85
2021/04/10 05:50:56;;;;;;;27.05;12.38;;;;;;;5.22;48.46;95549.72;2999701;39;20035;-84
2021/04/10 05:52:57;;;;;;;23.52;11.52;;;;;;;5.29;47.30;95553.59;2998026;39;20046;-86
2021/04/10 05:54:58;;;;;;;24.45;10.82;;;;;;;5.32;45.97;95547.34;2996989;39;20038;-85
2021/04/10 05:57:00;;;;;;;20.80;11.50;;;;;;;5.27;46.50;95544.22;2995584;39;20094;-83
2021/04/10 05:59:01;;;;;;;34.80;12.25;;;;;;;5.19;46.63;95547.34;2987985;39;20357;-84
2021/04/10 06:01:02;;;;;;;25.58;11.10;;;;;;;5.22;47.26;95547.13;2988307;39;20071;-85
2021/04/10 06:03:03;;;;;;;22.70;11.45;;;;;;;5.28;46.44;95548.50;2998268;39;20087;-85
2021/04/10 06:05:05;;;;;;;30.20;12.77;;;;;;;5.39;45.79;95545.16;2992351;39;20096;-85
2021/04/10 06:07:07;;;;;;;23.88;11.90;;;;;;;5.39;45.33;95539.94;3010451;39;20050;-84
2021/04/10 06:09:08;;;;;;;17.83;10.60;;;;;;;5.23;45.04;95535.81;2994734;39;20072;-85
2021/04/10 06:11:09;;;;;;;20.83;10.65;;;;;;;5.22;45.46;95541.13;2996524;39;20039;-85
2021/04/10 06:13:11;;;;;;;18.40;10.77;;;;;;;5.30;45.83;95538.81;3003156;39;20094;-87
2021/04/10 06:15:15;;;;;;;19.90;11.40;;;;;;;5.32;45.55;95542.97;2995231;39;20047;-85
2021/04/10 06:17:17;;;;;;;18.75;11.90;;;;;;;5.49;45.31;95543.56;3005831;39;20039;-85
2021/04/10 06:19:19;;;;;;;27.23;14.60;;;;;;;5.53;44.48;95550.22;2996654;39;20076;-84
2021/04/10 06:21:20;;;;;;;64.97;30.75;;;;;;;5.54;44.13;95547.50;2988510;39;20040;-86
2021/04/10 06:23:22;;;;;;;19.17;11.48;;;;;;;5.44;44.76;95543.03;2998368;39;20064;-85
2021/04/10 06:25:23;;;;;;;24.25;11.32;;;;;;;5.42;44.71;95544.91;3008516;39;20067;-81
2021/04/10 06:27:24;;;;;;;21.88;10.57;;;;;;;5.37;45.13;95552.22;2994523;39;20054;-85
2021/04/10 06:29:25;;;;;;;20.27;10.52;;;;;;;5.33;44.73;95549.84;2998522;39;20064;-83
2021/04/10 06:31:27;;;;;;;19.05;10.07;;;;;;;5.06;44.69;95549.97;3000443;39;20058;-83
2021/04/10 06:33:29;;;;;;;17.70;9.98;;;;;;;4.95;45.44;95556.81;2995025;39;20079;-85
2021/04/10 06:35:30;;;;;;;20.58;11.55;;;;;;;5.15;44.86;95555.47;2988109;39;20087;-83
2021/04/10 06:37:56;;;;;;;35.53;11.90;;;;;;;5.10;44.57;95559.22;2978756;40;20104;-84
2021/04/10 06:39:57;;;;;;;17.60;11.00;;;;;;;5.37;43.66;95557.41;2978545;40;20067;-83
2021/04/10 06:42:00;;;;;;;20.80;11.45;;;;;;;5.36;44.92;95566.16;2972125;39;20048;-82
2021/04/10 06:44:03;;;;;;;20.73;10.38;;;;;;;5.38;44.73;95559.06;2989854;39;20052;-84
2021/04/10 06:46:04;;;;;;;15.60;9.75;;;;;;;5.58;44.84;95550.72;2978363;39;20039;-87
2021/04/10 06:48:12;;;;;;;20.42;10.05;;;;;;;5.89;44.24;95543.34;2996771;39;20050;-86
2021/04/10 06:50:13;;;;;;;19.13;10.20;;;;;;;6.18;43.37;95548.28;2996586;39;20059;-83
2021/04/10 06:52:16;;;;;;;21.05;9.35;;;;;;;6.32;42.86;95543.72;2986497;39;20063;-88
2021/04/10 06:54:18;;;;;;;25.67;10.50;;;;;;;6.34;42.28;95543.59;2986851;39;20373;-86
2021/04/10 06:56:31;;;;;;;17.70;10.05;;;;;;;6.58;42.44;95546.16;2986309;39;20110;-86
2021/04/10 06:58:42;;;;;;;16.95;9.52;;;;;;;6.71;41.51;95549.53;2978707;39;20032;-70
2021/04/10 07:00:43;;;;;;;20.42;10.98;;;;;;;6.45;41.69;95545.41;2982563;39;20051;-71
2021/04/10 07:02:45;;;;;;;20.40;9.75;;;;;;;6.52;41.66;95541.44;2977620;40;20064;-84
2021/04/10 07:04:47;;;;;;;13.60;8.38;;;;;;;6.68;41.33;95543.72;2987352;39;20063;-87
2021/04/10 07:06:48;;;;;;;19.40;7.93;;;;;;;6.73;40.78;95538.97;2984333;39;20480;-85
2021/04/10 07:08:49;;;;;;;15.73;8.80;;;;;;;6.91;40.67;95535.00;2996338;39;20111;-86
2021/04/10 07:10:51;;;;;;;14.02;7.93;;;;;;;7.13;40.37;95526.38;2987021;39;20036;-84
2021/04/10 07:12:52;;;;;;;16.40;8.60;;;;;;;7.16;39.50;95533.97;2986957;39;20054;-84
2021/04/10 07:14:53;;;;;;;12.18;8.27;;;;;;;7.26;38.71;95536.69;2986609;39;20516;-84
2021/04/10 07:16:56;;;;;;;15.73;7.78;;;;;;;7.05;39.74;95535.72;2986861;39;20034;-84
2021/04/10 07:18:57;;;;;;;17.52;8.27;;;;;;;6.72;39.13;95547.75;2996469;39;20412;-84
2021/04/10 07:21:24;;;;;;;15.20;7.63;;;;;;;6.38;39.50;95545.03;2978905;39;20070;-85
2021/04/10 07:23:25;;;;;;;15.35;7.47;;;;;;;6.31;39.39;95536.84;2987507;39;20123;-85
2021/04/10 07:25:27;;;;;;;14.77;8.60;;;;;;;6.51;39.42;95540.56;2996392;39;20107;-86
2021/04/10 07:27:28;;;;;;;21.77;10.77;;;;;;;6.82;39.35;95540.91;2985296;39;20060;-86
2021/04/10 07:29:38;;;;;;;16.65;7.65;;;;;;;7.00;38.88;95540.47;3003148;39;20058;-85
2021/04/10 07:31:39;;;;;;;13.02;6.72;;;;;;;7.28;38.52;95552.22;2978554;39;20152;-84
2021/04/10 07:33:42;;;;;;;15.50;6.75;;;;;;;6.84;37.76;95545.97;2987173;39;20059;-84
2021/04/10 07:35:44;;;;;;;15.68;6.70;;;;;;;6.69;38.66;95542.75;2995691;39;20376;-86
2021/04/10 07:37:49;;;;;;;14.50;7.38;;;;;;;6.33;39.51;95540.16;2998192;39;20051;-85
2021/04/10 07:39:50;;;;;;;15.55;6.85;;;;;;;6.46;39.31;95542.69;2996681;39;20082;-85
2021/04/10 07:42:05;;;;;;;12.38;6.60;;;;;;;6.83;38.19;95539.94;2998183;39;20130;-85
2021/04/10 07:44:06;;;;;;;19.20;7.47;;;;;;;7.10;38.60;95536.22;2981428;39;20060;-85
2021/04/10 07:46:13;;;;;;;11.90;5.82;;;;;;;6.86;37.05;95537.13;2986859;39;20059;-84
2021/04/10 07:48:18;;;;;;;12.88;6.15;;;;;;;6.63;37.41;95536.25;2990537;39;20064;-85
2021/04/10 07:50:26;;;;;;;10.80;5.72;;;;;;;6.70;36.85;95539.22;3002126;39;20406;-86
2021/04/10 07:52:28;;;;;;;8.20;5.60;;;;;;;6.68;37.48;95535.91;2987310;39;20047;-84
2021/04/10 07:54:40;;;;;;;8.82;4.93;;;;;;;6.45;36.44;95530.59;2997408;39;20063;-85
2021/04/10 07:57:01;;;;;;;13.60;6.43;;;;;;;6.65;37.99;95523.13;2987652;39;20305;-87
2021/04/10 07:59:05;;;;;;;14.48;8.70;;;;;;;6.67;38.36;95529.03;2988969;39;20059;-85
2021/04/10 08:01:08;;;;;;;17.95;8.82;;;;;;;6.87;38.31;95528.34;2982195;40;20059;-88
2021/04/10 08:03:22;;;;;;;14.98;7.50;;;;;;;7.28;37.71;95524.38;2992114;39;20207;-85
2021/04/10 08:05:24;;;;;;;16.65;7.25;;;;;;;7.57;37.74;95534.28;2997613;39;20042;-87
2021/04/10 08:07:32;;;;;;;12.38;7.60;;;;;;;7.57;37.60;95529.94;2991054;39;20035;-87
2021/04/10 08:09:36;;;;;;;12.43;7.32;;;;;;;7.16;37.91;95525.31;2988648;39;20035;-85
2021/04/10 08:11:41;;;;;;;14.05;6.80;;;;;;;7.21;37.89;95524.97;2996204;39;20063;-86
2021/04/10 08:13:55;;;;;;;;;;;;;;;6.94;38.07;95526.13;3008885;39;20324;-84
2021/04/10 08:16:16;;;;;;;13.20;6.80;;;;;;;7.21;37.96;95524.97;3004889;39;19932;-84
2021/04/10 08:18:21;;;;;;;13.80;7.65;;;;;;;7.07;38.53;95526.00;2978813;40;20059;-72
2021/04/10 08:20:27;;;;;;;15.88;7.90;;;;;;;7.16;38.07;95522.69;2974617;39;20052;-73
2021/04/10 08:22:29;;;;;;;12.75;8.75;;;;;;;7.42;38.04;95515.50;2992093;39;20122;-73
2021/04/10 08:24:35;;;;;;;18.75;9.40;;;;;;;7.73;37.75;95515.69;2982885;39;20460;-73
2021/04/10 08:26:38;;;;;;;13.98;8.00;;;;;;;8.02;36.80;95515.13;2992277;39;20485;-73
2021/04/10 08:28:40;;;;;;;14.32;7.72;;;;;;;7.80;37.05;95509.00;2983990;39;20083;-72
2021/04/10 08:30:42;;;;;;;12.80;7.78;;;;;;;7.86;37.07;95513.75;2975159;39;20102;-73
2021/04/10 08:32:43;;;;;;;12.98;7.80;;;;;;;7.87;36.82;95504.97;2989269;39;20092;-72
2021/04/10 08:34:45;;;;;;;12.55;7.28;;;;;;;7.98;36.73;95509.34;2993044;39;20073;-73
2021/04/10 08:36:54;;;;;;;12.98;8.32;;;;;;;8.18;36.62;95500.72;2993016;39;20111;-73
2021/04/10 08:38:55;;;;;;;13.77;8.20;;;;;;;8.47;36.66;95494.09;2998842;39;20042;-74
2021/04/10 08:41:00;;;;;;;12.77;7.40;;;;;;;8.76;35.77;95502.97;2973718;39;20060;-71
2021/04/10 08:43:03;;;;;;;16.67;8.15;;;;;;;8.84;35.55;95491.03;2969629;39;20051;-73
2021/04/10 08:45:05;;;;;;;16.23;10.13;;;;;;;8.78;34.80;95490.59;2979186;39;20040;-74
2021/04/10 08:47:06;;;;;;;15.40;8.25;;;;;;;8.86;35.49;95492.53;2983614;39;20043;-73
2021/04/10 08:49:28;;;;;;;21.70;8.27;;;;;;;8.90;34.98;95487.91;2977803;39;20102;-73
2021/04/10 08:51:32;;;;;;;18.17;8.25;;;;;;;8.92;35.27;95488.59;2985903;39;20062;-72
2021/04/10 08:53:38;;;;;;;;;;;;;;;8.86;34.51;95489.13;2998064;39;20071;-86
2021/04/10 08:55:40;;;;;;;19.00;8.43;;;;;;;8.95;34.41;95481.34;2984231;39;19928;-86
2021/04/10 08:57:43;;;;;;;25.55;8.02;;;;;;;9.16;34.18;95483.91;2991778;39;20075;-83
2021/04/10 08:59:48;;;;;;;14.07;7.57;;;;;;;9.20;34.23;95479.25;2984757;39;20082;-87
2021/04/10 09:02:09;;;;;;;10.73;6.80;;;;;;;9.51;33.21;95474.81;2992763;39;20080;-72
2021/04/10 09:04:11;;;;;;;20.15;6.57;;;;;;;9.62;33.21;95473.88;2979252;39;20081;-71
2021/04/10 09:06:18;;;;;;;10.82;5.93;;;;;;;9.57;33.13;95473.44;2985566;39;20060;-73
2021/04/10 09:08:27;;;;;;;10.35;5.95;;;;;;;9.76;33.49;95463.00;2981367;39;20353;-72
2021/04/10 09:10:28;;;;;;;15.70;5.75;;;;;;;9.81;33.00;95462.63;2989737;39;20054;-73
2021/04/10 09:12:29;;;;;;;19.55;5.90;;;;;;;10.01;32.58;95456.44;2991971;39;20336;-73
2021/04/10 09:14:46;;;;;;;11.30;6.25;;;;;;;10.30;33.39;95460.06;2993721;39;20047;-73
2021/04/10 09:16:50;;;;;;;10.18;5.68;;;;;;;10.61;32.82;95458.94;2982979;39;20059;-71
2021/04/10 09:18:53;;;;;;;;;;;;;;;10.89;31.48;95455.56;2982897;39;20469;-73
2021/04/10 09:20:54;;;;;;;12.32;4.82;;;;;;;10.98;30.23;95455.53;2984226;39;19968;-72
2021/04/10 09:22:55;;;;;;;9.52;5.13;;;;;;;10.85;30.09;95452.41;2983121;39;20097;-74
2021/04/10 09:24:57;;;;;;;8.27;4.97;;;;;;;10.90;30.60;95450.16;2992018;39;20092;-73
2021/04/10 09:27:03;;;;;;;13.05;5.15;;;;;;;11.07;30.41;95443.34;2982790;39;20056;-74
2021/04/10 09:29:05;;;;;;;8.77;4.07;;;;;;;11.20;29.94;95445.66;2992282;39;20327;-73
2021/04/10 09:31:45;;;;;;;8.52;4.45;;;;;;;10.87;29.66;95442.59;2984235;39;20051;-73
2021/04/10 09:33:47;;;;;;;6.95;4.20;;;;;;;9.97;29.95;95428.88;2983006;39;20056;-74
2021/04/10 09:35:48;;;;;;;8.90;4.00;;;;;;;9.87;30.76;95432.47;2982524;39;20102;-72
2021/04/10 09:37:51;;;;;;;8.85;5.03;;;;;;;9.83;30.64;95430.13;2992689;39;20058;-73
2021/04/10 09:40:02;;;;;;;10.75;4.38;;;;;;;9.83;30.84;95424.06;2975352;39;20052;-86
2021/04/10 09:42:04;;;;;;;7.15;3.72;;;;;;;10.20;29.92;95424.19;2993421;39;20063;-83